createdAt,value
2022-10-17T00:01:00.412Z,2.27
2022-10-17T00:03:28.532Z,2.17
2022-10-17T00:05:57.923Z,2.10
2022-10-17T00:08:26.482Z,2.60
2022-10-17T00:10:58.713Z,1.80
2022-10-17T00:13:27.881Z,2.20
2022-10-17T00:15:58.114Z,2.60
2022-10-17T00:18:26.189Z,2.40
2022-10-17T00:20:54.514Z,2.73
2022-10-17T00:23:22.606Z,2.10
2022-10-17T00:25:59.362Z,2.70
2022-10-17T00:28:27.413Z,2.20
2022-10-17T00:31:01.064Z,2.87
2022-10-17T00:33:29.740Z,2.83
2022-10-17T00:36:05.020Z,2.43
2022-10-17T00:38:33.091Z,2.90
2022-10-17T00:41:01.456Z,3.27
2022-10-17T00:43:29.683Z,2.70
2022-10-17T00:45:59.424Z,2.77
2022-10-17T00:48:27.593Z,3.53
2022-10-17T00:50:56.199Z,3.30
2022-10-17T00:53:24.530Z,2.50
2022-10-17T00:55:55.005Z,3.07
2022-10-17T00:58:23.082Z,3.00
2022-10-17T01:00:51.119Z,3.30
2022-10-17T01:03:20.526Z,3.20
2022-10-17T01:05:48.596Z,2.77
2022-10-17T01:08:16.829Z,3.33
2022-10-17T01:10:57.365Z,3.00
2022-10-17T01:13:31.103Z,2.90
2022-10-17T01:16:07.933Z,3.60
2022-10-17T01:18:50.637Z,2.73
2022-10-17T01:21:47.674Z,2.70
2022-10-17T01:24:50.111Z,3.30
2022-10-17T01:27:36.743Z,2.57
2022-10-17T01:30:32.798Z,4.07
2022-10-17T01:33:10.863Z,3.10
2022-10-17T01:35:42.510Z,2.80
2022-10-17T01:38:14.117Z,3.30
2022-10-17T01:40:47.545Z,2.70
2022-10-17T01:43:21.006Z,2.53
2022-10-17T01:45:53.789Z,3.57
2022-10-17T01:48:26.297Z,3.40
2022-10-17T01:50:59.597Z,2.90
2022-10-17T01:53:32.809Z,3.27
2022-10-17T01:56:04.037Z,3.57
2022-10-17T01:58:35.100Z,3.60
2022-10-17T02:01:06.639Z,2.83
2022-10-17T02:03:36.791Z,2.67
2022-10-17T02:06:07.548Z,3.60
2022-10-17T02:08:44.092Z,2.87
2022-10-17T02:11:17.209Z,3.60
2022-10-17T02:14:03.177Z,3.60
2022-10-17T02:16:37.813Z,2.87
2022-10-17T02:19:27.043Z,3.77
2022-10-17T02:22:05.291Z,3.50
2022-10-17T02:24:39.311Z,2.97
2022-10-17T02:27:11.758Z,3.13
2022-10-17T02:29:48.881Z,3.00
2022-10-17T02:32:24.460Z,2.80
2022-10-17T02:34:57.322Z,3.67
2022-10-17T02:37:29.931Z,3.20
2022-10-17T02:40:01.765Z,3.03
2022-10-17T02:42:31.356Z,3.23
2022-10-17T02:45:02.190Z,3.00
2022-10-17T02:47:35.996Z,2.90
2022-10-17T02:50:07.785Z,3.60
2022-10-17T02:52:45.933Z,3.27
2022-10-17T02:55:19.245Z,2.50
2022-10-17T02:57:52.549Z,2.97
2022-10-17T03:00:22.258Z,3.40
2022-10-17T03:02:52.595Z,3.10
2022-10-17T03:05:24.435Z,2.67
2022-10-17T03:07:53.170Z,3.30
2022-10-17T03:10:21.673Z,2.70
2022-10-17T03:12:49.870Z,3.80
2022-10-17T03:15:18.257Z,3.17
2022-10-17T03:20:21.249Z,2.73
2022-10-17T03:22:50.739Z,3.17
2022-10-17T03:25:18.739Z,3.10
2022-10-17T03:27:49.211Z,2.70
2022-10-17T03:30:17.449Z,3.00
2022-10-17T03:32:45.653Z,3.20
2022-10-17T03:35:15.081Z,2.97
2022-10-17T03:37:47.645Z,3.10
2022-10-17T03:40:16.682Z,3.53
2022-10-17T03:42:45.114Z,3.33
2022-10-17T03:45:13.166Z,3.47
2022-10-17T03:47:41.274Z,2.70
2022-10-17T03:50:10.112Z,3.40
2022-10-17T03:52:40.526Z,3.70
2022-10-17T03:55:11.086Z,3.00
2022-10-17T03:57:42.185Z,3.07
2022-10-17T04:00:14.645Z,3.10
2022-10-17T04:02:44.826Z,2.80
2022-10-17T04:05:18.662Z,2.80
2022-10-17T04:07:47.539Z,3.30
2022-10-17T04:10:19.056Z,3.77
2022-10-17T04:12:48.460Z,2.70
2022-10-17T04:15:16.570Z,3.13
2022-10-17T04:17:48.474Z,3.10
2022-10-17T04:20:18.013Z,2.80
2022-10-17T04:22:46.051Z,3.60
2022-10-17T04:25:14.765Z,2.67
2022-10-17T04:27:48.987Z,3.63
2022-10-17T04:30:17.316Z,3.17
2022-10-17T04:32:45.842Z,2.90
2022-10-17T04:35:22.796Z,2.80
2022-10-17T04:37:58.279Z,3.00
2022-10-17T04:40:26.570Z,2.77
2022-10-17T04:42:56.339Z,3.07
2022-10-17T04:45:31.749Z,3.20
2022-10-17T04:48:03.411Z,3.00
2022-10-17T04:50:31.479Z,3.00
2022-10-17T04:53:23.641Z,2.97
2022-10-17T04:55:52.345Z,3.63
2022-10-17T04:58:22.011Z,2.63
2022-10-17T05:00:50.905Z,3.20
2022-10-17T05:03:24.698Z,3.30
2022-10-17T05:05:52.730Z,3.10
2022-10-17T05:08:20.861Z,2.97
2022-10-17T05:10:48.863Z,2.90
2022-10-17T05:13:16.942Z,2.57
2022-10-17T05:15:46.319Z,2.80
2022-10-17T05:18:14.339Z,3.20
2022-10-17T05:20:44.798Z,3.17
2022-10-17T05:23:12.817Z,2.53
2022-10-17T05:25:44.153Z,3.20
2022-10-17T05:28:12.855Z,3.43
2022-10-17T05:30:43.298Z,2.87
2022-10-17T05:33:12.895Z,2.57
2022-10-17T05:35:41.565Z,3.20
2022-10-17T05:38:09.798Z,2.83
2022-10-17T05:40:39.504Z,3.40
2022-10-17T05:43:07.601Z,3.00
2022-10-17T05:45:36.530Z,2.90
2022-10-17T05:48:04.930Z,2.67
2022-10-17T05:50:34.407Z,3.30
2022-10-17T05:53:16.397Z,3.20
2022-10-17T05:55:56.962Z,2.37
2022-10-17T05:58:38.713Z,2.67
2022-10-17T06:01:24.779Z,3.00
2022-10-17T06:03:52.862Z,2.83
2022-10-17T06:06:23.277Z,3.00
2022-10-17T06:08:52.303Z,2.77
2022-10-17T06:11:26.794Z,3.00
2022-10-17T06:13:55.117Z,3.57
2022-10-17T06:16:26.184Z,2.90
2022-10-17T06:18:54.329Z,2.50
2022-10-17T06:21:25.296Z,2.90
2022-10-17T06:23:56.969Z,3.00
2022-10-17T06:26:36.951Z,3.30
2022-10-17T06:29:07.900Z,2.53
2022-10-17T06:31:41.385Z,2.87
2022-10-17T06:34:09.457Z,3.33
2022-10-17T06:36:40.789Z,2.90
2022-10-17T06:39:10.151Z,2.93
2022-10-17T06:41:44.458Z,3.27
2022-10-17T06:44:13.230Z,3.37
2022-10-17T06:46:51.095Z,2.93
2022-10-17T06:49:19.614Z,3.43
2022-10-17T06:51:51.767Z,2.60
2022-10-17T06:54:24.233Z,3.00
2022-10-17T06:57:11.244Z,2.70
2022-10-17T07:00:02.115Z,3.10
2022-10-17T07:02:36.762Z,2.70
2022-10-17T07:05:05.103Z,3.40
2022-10-17T07:07:34.459Z,3.30
2022-10-17T07:10:03.848Z,3.90
2022-10-17T07:12:32.250Z,3.20
2022-10-17T07:15:00.287Z,2.93
2022-10-17T07:17:28.533Z,3.57
2022-10-17T07:19:56.855Z,3.27
2022-10-17T07:22:25.362Z,3.00
2022-10-17T07:24:58.869Z,3.47
2022-10-17T07:27:31.231Z,3.03
2022-10-17T07:30:00.182Z,2.50
2022-10-17T07:32:37.594Z,3.17
2022-10-17T07:35:06.730Z,2.63
2022-10-17T07:37:34.775Z,2.77
2022-10-17T07:40:06.341Z,2.30
2022-10-17T07:42:37.113Z,2.57
2022-10-17T07:45:06.147Z,2.50
2022-10-17T07:47:35.898Z,2.50
2022-10-17T07:50:06.742Z,2.83
2022-10-17T07:52:34.769Z,2.83
2022-10-17T07:55:04.273Z,2.40
2022-10-17T07:57:32.267Z,2.07
2022-10-17T08:00:00.214Z,2.77
2022-10-17T08:02:29.308Z,3.17
2022-10-17T08:04:57.587Z,2.60
2022-10-17T08:07:29.441Z,2.40
2022-10-17T08:09:57.726Z,1.90
2022-10-17T08:12:27.634Z,2.33
2022-10-17T08:14:56.080Z,2.40
2022-10-17T08:17:24.110Z,2.93
2022-10-17T08:19:52.276Z,2.50
2022-10-17T08:22:20.246Z,2.93
2022-10-17T08:24:48.317Z,2.37
2022-10-17T08:27:21.400Z,1.70
2022-10-17T08:29:52.874Z,2.40
2022-10-17T08:32:22.158Z,2.00
2022-10-17T08:34:50.128Z,2.37
2022-10-17T08:37:18.283Z,2.37
2022-10-17T08:39:46.839Z,3.03
2022-10-17T08:42:43.174Z,2.53
2022-10-17T08:45:21.435Z,2.23
2022-10-17T08:47:53.111Z,2.93
2022-10-17T08:50:29.806Z,2.97
2022-10-17T08:53:02.818Z,2.60
2022-10-17T08:55:40.041Z,2.60
2022-10-17T08:58:15.622Z,1.90
2022-10-17T09:00:50.441Z,2.53
2022-10-17T09:03:39.676Z,3.37
2022-10-17T09:06:17.316Z,2.50
2022-10-17T09:08:52.862Z,2.03
2022-10-17T09:11:46.174Z,2.20
2022-10-17T09:14:30.598Z,2.20
2022-10-17T09:17:12.703Z,2.10
2022-10-17T09:19:44.384Z,2.00
2022-10-17T09:22:17.990Z,2.07
2022-10-17T09:24:50.170Z,2.10
2022-10-17T09:27:24.621Z,2.30
2022-10-17T09:29:58.762Z,2.50
2022-10-17T09:32:28.523Z,2.00
2022-10-17T09:34:57.265Z,1.90
2022-10-17T09:37:31.893Z,2.43
2022-10-17T09:39:59.878Z,2.40
2022-10-17T09:42:28.913Z,2.53
2022-10-17T09:45:19.259Z,2.27
2022-10-17T09:47:58.544Z,2.33
2022-10-17T09:50:31.541Z,2.30
2022-10-17T09:53:03.767Z,2.20
2022-10-17T09:55:39.675Z,2.20
2022-10-17T09:58:09.038Z,2.00
2022-10-17T10:00:39.384Z,2.53
2022-10-17T10:03:15.451Z,2.40
2022-10-17T10:05:58.697Z,2.20
2022-10-17T10:08:29.687Z,2.90
2022-10-17T10:11:04.510Z,2.13
2022-10-17T10:13:33.797Z,2.67
2022-10-17T10:16:20.822Z,2.93
2022-10-17T10:18:51.417Z,2.53
2022-10-17T10:21:21.159Z,2.40
2022-10-17T10:24:06.637Z,2.40
2022-10-17T10:26:39.702Z,2.60
2022-10-17T10:29:22.498Z,2.50
2022-10-17T10:31:51.831Z,2.47
2022-10-17T10:34:24.454Z,2.30
2022-10-17T10:36:58.429Z,2.27
2022-10-17T10:39:35.741Z,2.80
2022-10-17T10:42:06.922Z,2.20
2022-10-17T10:44:37.276Z,1.87
2022-10-17T10:47:19.558Z,2.50
2022-10-17T10:49:51.276Z,3.87
2022-10-17T10:52:26.198Z,2.60
2022-10-17T10:55:05.194Z,2.60
2022-10-17T10:57:37.243Z,2.40
2022-10-17T11:00:13.456Z,2.53
2022-10-17T11:02:47.130Z,2.60
2022-10-17T11:05:23.083Z,2.43
2022-10-17T11:07:56.111Z,2.37
2022-10-17T11:10:29.147Z,2.93
2022-10-17T11:13:02.402Z,2.80
2022-10-17T11:15:36.071Z,3.00
2022-10-17T11:18:07.186Z,2.50
2022-10-17T11:20:45.599Z,2.20
2022-10-17T11:23:21.351Z,2.60
2022-10-17T11:25:51.530Z,3.00
2022-10-17T11:28:21.567Z,2.80
2022-10-17T11:30:53.221Z,2.53
2022-10-17T11:33:28.524Z,2.53
2022-10-17T11:36:02.676Z,2.70
2022-10-17T11:38:42.932Z,2.67
2022-10-17T11:41:15.130Z,2.70
2022-10-17T11:43:51.328Z,2.87
2022-10-17T11:46:23.741Z,2.80
2022-10-17T11:49:05.112Z,2.63
2022-10-17T11:52:00.624Z,2.53
2022-10-17T11:54:36.194Z,3.47
2022-10-17T11:57:22.640Z,2.47
2022-10-17T12:00:00.158Z,2.50
2022-10-17T12:02:37.760Z,2.33
2022-10-17T12:05:17.005Z,2.50
2022-10-17T12:07:53.023Z,2.47
2022-10-17T12:10:34.565Z,2.93
2022-10-17T12:13:36.201Z,2.50
2022-10-17T12:16:38.929Z,3.00
2022-10-17T12:19:28.623Z,2.20
2022-10-17T12:21:59.554Z,2.57
2022-10-17T12:24:41.708Z,2.30
2022-10-17T12:27:36.838Z,2.10
2022-10-17T12:30:15.673Z,2.40
2022-10-17T12:33:07.742Z,2.40
2022-10-17T12:35:38.220Z,2.47
2022-10-17T12:38:21.378Z,2.17
2022-10-17T12:40:53.173Z,3.17
2022-10-17T12:43:57.351Z,2.53
2022-10-17T12:46:50.951Z,2.47
2022-10-17T12:49:51.974Z,2.20
2022-10-17T12:52:53.872Z,2.40
2022-10-17T12:55:26.545Z,1.90
2022-10-17T12:58:00.961Z,1.83
2022-10-17T13:00:35.780Z,1.97
2022-10-17T13:03:12.118Z,1.50
2022-10-17T13:05:43.279Z,1.37
2022-10-17T13:08:23.026Z,1.90
2022-10-17T13:10:53.042Z,1.80
2022-10-17T13:13:26.641Z,1.60
2022-10-17T13:15:56.165Z,1.77
2022-10-17T13:18:26.694Z,1.83
2022-10-17T13:21:00.114Z,1.50
2022-10-17T13:23:33.121Z,1.70
2022-10-17T13:26:13.907Z,1.70
2022-10-17T13:28:43.448Z,1.50
2022-10-17T13:31:30.757Z,2.00
2022-10-17T13:34:01.243Z,1.70
2022-10-17T13:36:31.247Z,1.90
2022-10-17T13:39:01.029Z,1.80
2022-10-17T13:41:35.922Z,1.40
2022-10-17T13:44:13.828Z,1.97
2022-10-17T13:46:42.299Z,1.87
2022-10-17T13:49:22.266Z,2.07
2022-10-17T13:51:54.971Z,1.90
2022-10-17T13:54:40.056Z,1.80
2022-10-17T13:57:21.068Z,1.60
2022-10-17T13:59:53.735Z,1.90
2022-10-17T14:02:24.044Z,1.77
2022-10-17T14:05:16.669Z,1.90
2022-10-17T14:08:10.655Z,1.60
2022-10-17T14:10:41.094Z,1.80
2022-10-17T14:13:19.646Z,1.40
2022-10-17T14:15:49.503Z,1.60
2022-10-17T14:18:21.432Z,1.83
2022-10-17T14:23:42.568Z,1.80
2022-10-17T14:26:14.698Z,1.80
2022-10-17T14:28:45.521Z,1.70
2022-10-17T14:31:26.601Z,2.40
2022-10-17T14:33:55.669Z,1.70
2022-10-17T14:36:36.742Z,1.27
2022-10-17T14:39:13.351Z,1.80
2022-10-17T14:41:45.536Z,1.80
2022-10-17T14:44:29.062Z,2.07
2022-10-17T14:47:05.937Z,2.23
2022-10-17T14:49:39.670Z,1.73
2022-10-17T14:52:26.311Z,1.90
2022-10-17T14:54:59.245Z,1.77
2022-10-17T14:57:35.914Z,1.77
2022-10-17T15:00:04.597Z,1.90
2022-10-17T15:02:34.194Z,1.77
2022-10-17T15:05:02.395Z,1.87
2022-10-17T15:07:30.485Z,2.00
2022-10-17T15:09:58.462Z,1.80
2022-10-17T15:12:27.862Z,2.40
2022-10-17T15:14:59.272Z,3.27
2022-10-17T15:17:30.835Z,2.00
2022-10-17T15:20:00.476Z,2.13
2022-10-17T15:22:28.898Z,2.13
2022-10-17T15:24:57.226Z,2.03
2022-10-17T15:27:27.708Z,2.43
2022-10-17T15:29:55.868Z,2.20
2022-10-17T15:32:23.910Z,2.47
2022-10-17T15:34:51.922Z,2.80
2022-10-17T15:37:22.983Z,2.03
2022-10-17T15:39:54.285Z,1.97
2022-10-17T15:42:23.512Z,2.97
2022-10-17T15:44:51.561Z,2.83
2022-10-17T15:47:26.554Z,2.77
2022-10-17T15:49:55.488Z,2.60
2022-10-17T15:52:25.049Z,2.30
2022-10-17T15:54:53.170Z,2.83
2022-10-17T15:57:23.496Z,3.00
2022-10-17T15:59:52.945Z,2.53
2022-10-17T16:02:22.967Z,1.90
2022-10-17T16:04:53.622Z,2.20
2022-10-17T16:07:21.965Z,1.77
2022-10-17T16:09:51.384Z,2.33
2022-10-17T16:12:24.480Z,2.50
2022-10-17T16:14:52.483Z,2.10
2022-10-17T16:17:20.535Z,2.20
2022-10-17T16:19:48.638Z,1.50
2022-10-17T16:22:27.641Z,1.60
2022-10-17T16:24:59.251Z,1.90
2022-10-17T16:27:27.725Z,1.40
2022-10-17T16:29:55.724Z,1.90
2022-10-17T16:32:23.726Z,2.40
2022-10-17T16:34:51.711Z,2.20
2022-10-17T16:37:19.708Z,2.37
2022-10-17T16:39:52.210Z,2.10
2022-10-17T16:42:21.956Z,2.00
2022-10-17T16:44:50.854Z,1.93
2022-10-17T16:47:19.567Z,1.93
2022-10-17T16:49:47.637Z,2.33
2022-10-17T16:52:15.674Z,1.90
2022-10-17T16:54:43.630Z,2.20
2022-10-17T16:57:11.642Z,1.70
2022-10-17T16:59:41.045Z,2.07
2022-10-17T17:02:10.762Z,2.10
2022-10-17T17:04:38.781Z,1.93
2022-10-17T17:07:06.806Z,2.70
2022-10-17T17:09:35.250Z,2.43
2022-10-17T17:12:03.377Z,2.80
2022-10-17T17:14:31.507Z,2.80
2022-10-17T17:17:00.937Z,2.60
2022-10-17T17:19:28.992Z,2.23
2022-10-17T17:21:56.985Z,3.33
2022-10-17T17:24:25.487Z,2.90
2022-10-17T17:26:54.739Z,3.40
2022-10-17T17:29:23.416Z,2.43
2022-10-17T17:31:52.309Z,1.97
2022-10-17T17:34:21.700Z,2.80
2022-10-17T17:36:52.480Z,2.60
2022-10-17T17:39:20.481Z,3.17
2022-10-17T17:41:48.440Z,2.73
2022-10-17T17:44:17.245Z,2.87
2022-10-17T17:46:46.289Z,2.93
2022-10-17T17:49:14.613Z,2.23
2022-10-17T17:51:46.458Z,3.10
2022-10-17T17:54:15.145Z,3.20
2022-10-17T17:56:43.531Z,2.93
2022-10-17T17:59:13.789Z,2.73
2022-10-17T18:01:42.160Z,3.00
2022-10-17T18:04:10.667Z,2.70
2022-10-17T18:06:40.705Z,2.43
2022-10-17T18:09:11.026Z,2.87
2022-10-17T18:11:39.455Z,2.20
2022-10-17T18:14:09.441Z,2.37
2022-10-17T18:16:38.195Z,2.23
2022-10-17T18:19:08.865Z,1.80
2022-10-17T18:21:37.596Z,1.83
2022-10-17T18:24:06.594Z,2.13
2022-10-17T18:26:36.027Z,2.27
2022-10-17T18:29:05.082Z,1.80
2022-10-17T18:31:35.679Z,2.27
2022-10-17T18:34:05.327Z,2.20
2022-10-17T18:36:34.880Z,1.70
2022-10-17T18:39:03.383Z,2.60
2022-10-17T18:41:31.881Z,1.80
2022-10-17T18:44:02.810Z,1.63
2022-10-17T18:46:35.764Z,1.93
2022-10-17T18:49:04.445Z,2.10
2022-10-17T18:51:32.529Z,2.23
2022-10-17T18:54:02.228Z,1.70
2022-10-17T18:56:30.903Z,1.77
2022-10-17T18:58:59.250Z,2.07
2022-10-17T19:01:29.301Z,1.77
2022-10-17T19:03:59.425Z,1.70
2022-10-17T19:06:32.600Z,2.17
2022-10-17T19:09:01.577Z,2.17
2022-10-17T19:11:31.653Z,2.10
2022-10-17T19:14:01.331Z,2.13
2022-10-17T19:16:32.567Z,2.47
2022-10-17T19:19:03.272Z,2.40
2022-10-17T19:21:31.359Z,2.00
2022-10-17T19:24:01.420Z,2.33
2022-10-17T19:26:31.738Z,1.90
2022-10-17T19:29:00.597Z,1.60
2022-10-17T19:31:32.439Z,1.87
2022-10-17T19:34:01.029Z,1.90
2022-10-17T19:36:33.547Z,2.10
2022-10-17T19:39:02.981Z,2.43
2022-10-17T19:41:31.271Z,1.73
2022-10-17T19:44:00.599Z,1.83
2022-10-17T19:46:29.984Z,2.00
2022-10-17T19:48:59.377Z,1.83
2022-10-17T19:51:28.950Z,2.00
2022-10-17T19:54:00.132Z,2.30
2022-10-17T19:56:29.727Z,2.27
2022-10-17T19:58:57.832Z,2.20
2022-10-17T20:01:27.543Z,2.20
2022-10-17T20:03:56.569Z,2.00
2022-10-17T20:06:26.111Z,2.60
2022-10-17T20:08:54.395Z,2.70
2022-10-17T20:11:24.568Z,2.20
2022-10-17T20:13:53.150Z,2.90
2022-10-17T20:16:23.094Z,2.43
2022-10-17T20:18:52.016Z,2.53
2022-10-17T20:21:28.189Z,1.90
2022-10-17T20:23:56.464Z,2.40
2022-10-17T20:26:37.040Z,2.13
2022-10-17T20:29:10.908Z,2.10
2022-10-17T20:31:40.329Z,2.43
2022-10-17T20:34:08.361Z,2.30
2022-10-17T20:36:37.800Z,1.83
2022-10-17T20:39:07.145Z,1.87
2022-10-17T20:41:35.812Z,1.97
2022-10-17T20:44:04.595Z,1.70
2022-10-17T20:46:37.294Z,2.30
2022-10-17T20:49:07.619Z,1.53
2022-10-17T20:51:37.347Z,2.13
2022-10-17T20:54:05.434Z,1.33
2022-10-17T20:56:34.797Z,1.93
2022-10-17T20:59:04.818Z,1.20
2022-10-17T21:01:34.669Z,1.50
2022-10-17T21:04:26.896Z,1.60
2022-10-17T21:06:53.531Z,1.60
2022-10-17T21:09:22.285Z,1.37
2022-10-17T21:11:54.917Z,1.83
2022-10-17T21:14:24.018Z,1.37
2022-10-17T21:16:53.164Z,1.90
2022-10-17T21:19:22.329Z,1.70
2022-10-17T21:21:52.070Z,1.63
2022-10-17T21:24:20.898Z,1.53
2022-10-17T21:26:55.112Z,1.00
2022-10-17T21:29:24.298Z,1.30
2022-10-17T21:31:53.019Z,1.60
2022-10-17T21:34:23.756Z,1.43
2022-10-17T21:36:53.344Z,1.33
2022-10-17T21:39:21.750Z,1.20
2022-10-17T21:41:49.807Z,1.10
2022-10-17T21:44:19.352Z,1.43
2022-10-17T21:46:47.920Z,1.87
2022-10-17T21:49:19.342Z,1.20
2022-10-17T21:51:48.202Z,1.50
2022-10-17T21:54:19.149Z,1.40
2022-10-17T21:56:47.642Z,1.53
2022-10-17T21:59:15.811Z,1.30
2022-10-17T22:01:45.129Z,1.30
2022-10-17T22:04:17.071Z,1.47
2022-10-17T22:06:46.656Z,1.50
2022-10-17T22:09:18.822Z,1.30
2022-10-17T22:11:48.583Z,1.43
2022-10-17T22:14:18.435Z,1.50
2022-10-17T22:16:47.406Z,1.37
2022-10-17T22:19:17.353Z,1.23
2022-10-17T22:21:45.546Z,1.07
2022-10-17T22:24:17.782Z,1.20
2022-10-17T22:26:46.031Z,1.57
2022-10-17T22:29:14.484Z,1.10
2022-10-17T22:31:42.752Z,1.20
2022-10-17T22:34:13.239Z,1.23
2022-10-17T22:36:41.364Z,1.50
2022-10-17T22:39:09.754Z,1.40
2022-10-17T22:41:39.070Z,1.40
2022-10-17T22:44:07.401Z,1.30
2022-10-17T22:46:35.536Z,1.70
2022-10-17T22:49:03.711Z,1.97
2022-10-17T22:51:31.837Z,1.53
2022-10-17T22:53:59.841Z,1.50
2022-10-17T22:56:27.842Z,1.70
2022-10-17T22:58:57.205Z,1.50
2022-10-17T23:01:26.619Z,1.47
2022-10-17T23:03:55.026Z,1.50
2022-10-17T23:06:23.494Z,2.17
2022-10-17T23:08:52.272Z,1.63
2022-10-17T23:11:20.773Z,1.50
2022-10-17T23:13:48.957Z,1.80
2022-10-17T23:16:18.467Z,1.60
2022-10-17T23:18:46.496Z,1.93
2022-10-17T23:21:14.646Z,1.60
2022-10-17T23:23:42.742Z,2.13
2022-10-17T23:26:12.393Z,1.57
2022-10-17T23:28:41.433Z,1.73
2022-10-17T23:31:11.062Z,1.50
2022-10-17T23:33:41.421Z,1.67
2022-10-17T23:36:10.837Z,1.70
2022-10-17T23:38:39.156Z,1.87
2022-10-17T23:41:07.506Z,1.57
2022-10-17T23:43:35.977Z,1.80
2022-10-17T23:46:05.135Z,1.80
2022-10-17T23:48:33.304Z,1.90
2022-10-17T23:51:02.929Z,1.90
2022-10-17T23:53:31.223Z,1.67
2022-10-17T23:55:59.308Z,1.80
2022-10-17T23:58:27.287Z,2.20
